sensor_id;sensor_type;location;lat;lon;timestamp;pressure;altitude;pressure_sealevel;temperature;humidity
45327;BME280;31062;49.678;24.560;2023-03-26T00:01:25;97089.84;;;9.54;73.46
45327;BME280;31062;49.678;24.560;2023-03-26T00:04:11;97103.28;;;9.48;73.37
45327;BME280;31062;49.678;24.560;2023-03-26T00:06:56;96882.09;;;8.16;72.83
45327;BME280;31062;49.678;24.560;2023-03-26T00:09:42;96929.56;;;8.45;72.43
45327;BME280;31062;49.678;24.560;2023-03-26T00:12:28;97052.25;;;9.27;72.49
45327;BME280;31062;49.678;24.560;2023-03-26T00:15:14;97068.41;;;9.42;72.43
45327;BME280;31062;49.678;24.560;2023-03-26T00:18:00;96907.59;;;8.26;71.70
45327;BME280;31062;49.678;24.560;2023-03-26T00:20:45;97073.69;;;9.38;71.88
45327;BME280;31062;49.678;24.560;2023-03-26T00:23:32;97006.88;;;8.88;72.13
45327;BME280;31062;49.678;24.560;2023-03-26T00:26:19;97109.78;;;9.40;72.03
45327;BME280;31062;49.678;24.560;2023-03-26T00:29:06;97067.91;;;9.34;72.30
45327;BME280;31062;49.678;24.560;2023-03-26T00:31:52;97044.34;;;9.12;72.48
45327;BME280;31062;49.678;24.560;2023-03-26T00:34:38;97045.69;;;9.11;72.37
45327;BME280;31062;49.678;24.560;2023-03-26T00:37:25;96934.41;;;8.35;72.16
45327;BME280;31062;49.678;24.560;2023-03-26T00:40:11;97084.75;;;9.38;71.04
45327;BME280;31062;49.678;24.560;2023-03-26T00:42:57;97109.38;;;9.34;70.90
45327;BME280;31062;49.678;24.560;2023-03-26T00:45:42;97091.13;;;9.41;70.19
45327;BME280;31062;49.678;24.560;2023-03-26T00:48:28;96876.63;;;7.85;69.75
45327;BME280;31062;49.678;24.560;2023-03-26T00:51:30;97096.06;;;9.42;70.67
45327;BME280;31062;49.678;24.560;2023-03-26T00:54:17;97108.56;;;9.43;70.55
45327;BME280;31062;49.678;24.560;2023-03-26T00:57:03;97056.78;;;9.23;70.12
45327;BME280;31062;49.678;24.560;2023-03-26T00:59:51;97111.34;;;9.43;70.19
45327;BME280;31062;49.678;24.560;2023-03-26T01:02:36;97008.44;;;8.91;70.66
45327;BME280;31062;49.678;24.560;2023-03-26T01:08:27;97032.06;;;9.04;70.29
45327;BME280;31062;49.678;24.560;2023-03-26T01:11:18;97103.94;;;9.58;70.70
45327;BME280;31062;49.678;24.560;2023-03-26T01:14:09;97117.41;;;9.52;70.29
45327;BME280;31062;49.678;24.560;2023-03-26T01:16:57;96986.63;;;8.74;70.30
45327;BME280;31062;49.678;24.560;2023-03-26T01:20:10;96986.63;;;8.74;70.48
45327;BME280;31062;49.678;24.560;2023-03-26T01:23:01;96952.63;;;8.50;70.50
45327;BME280;31062;49.678;24.560;2023-03-26T01:25:59;97031.47;;;9.05;70.70
45327;BME280;31062;49.678;24.560;2023-03-26T01:28:53;96928.06;;;8.33;70.69
45327;BME280;31062;49.678;24.560;2023-03-26T01:34:43;97095.66;;;9.58;71.01
45327;BME280;31062;49.678;24.560;2023-03-26T01:44:37;96918.63;;;8.26;70.26
45327;BME280;31062;49.678;24.560;2023-03-26T01:46:58;97096.34;;;9.47;70.82
45327;BME280;31062;49.678;24.560;2023-03-26T01:49:44;97097.66;;;9.46;70.81
45327;BME280;31062;49.678;24.560;2023-03-26T01:52:29;96909.59;;;8.04;71.12
45327;BME280;31062;49.678;24.560;2023-03-26T01:55:16;97048.50;;;9.01;71.16
45327;BME280;31062;49.678;24.560;2023-03-26T01:58:18;97107.78;;;9.31;71.55
45327;BME280;31062;49.678;24.560;2023-03-26T02:01:29;96918.19;;;7.99;71.20
45327;BME280;31062;49.678;24.560;2023-03-26T02:10:27;97067.41;;;9.05;71.27
45327;BME280;31062;49.678;24.560;2023-03-26T02:13:14;96931.69;;;8.04;71.36
45327;BME280;31062;49.678;24.560;2023-03-26T02:16:01;97015.19;;;8.67;71.11
45327;BME280;31062;49.678;24.560;2023-03-26T02:18:48;96929.78;;;8.07;71.19
45327;BME280;31062;49.678;24.560;2023-03-26T02:21:40;97110.69;;;9.33;70.78
45327;BME280;31062;49.678;24.560;2023-03-26T02:24:26;97101.28;;;9.27;70.47
45327;BME280;31062;49.678;24.560;2023-03-26T02:27:15;97112.16;;;9.34;70.63
45327;BME280;31062;49.678;24.560;2023-03-26T02:30:07;96974.78;;;8.40;70.30
45327;BME280;31062;49.678;24.560;2023-03-26T02:32:54;97113.34;;;9.31;70.83
45327;BME280;31062;49.678;24.560;2023-03-26T02:35:48;97142.31;;;9.30;70.46
45327;BME280;31062;49.678;24.560;2023-03-26T02:38:34;97084.59;;;9.04;70.53
45327;BME280;31062;49.678;24.560;2023-03-26T02:41:22;97000.91;;;8.49;69.70
45327;BME280;31062;49.678;24.560;2023-03-26T02:44:16;97104.25;;;9.19;70.02
45327;BME280;31062;49.678;24.560;2023-03-26T02:47:30;97124.41;;;9.31;69.82
45327;BME280;31062;49.678;24.560;2023-03-26T02:50:36;97129.41;;;9.23;69.30
45327;BME280;31062;49.678;24.560;2023-03-26T02:53:54;97131.38;;;9.32;69.36
45327;BME280;31062;49.678;24.560;2023-03-26T02:56:58;97007.34;;;8.42;69.26
45327;BME280;31062;49.678;24.560;2023-03-26T02:59:59;97149.38;;;9.22;68.95
45327;BME280;31062;49.678;24.560;2023-03-26T03:02:55;97118.06;;;9.19;69.02
45327;BME280;31062;49.678;24.560;2023-03-26T03:06:05;97123.34;;;9.15;68.57
45327;BME280;31062;49.678;24.560;2023-03-26T03:08:55;96936.03;;;7.76;68.61
45327;BME280;31062;49.678;24.560;2023-03-26T03:11:53;97137.69;;;9.02;69.36
45327;BME280;31062;49.678;24.560;2023-03-26T03:14:39;96958.94;;;7.89;69.27
45327;BME280;31062;49.678;24.560;2023-03-26T03:17:25;97097.94;;;8.86;69.43
45327;BME280;31062;49.678;24.560;2023-03-26T03:20:11;97089.50;;;8.84;69.29
45327;BME280;31062;49.678;24.560;2023-03-26T03:22:57;96987.88;;;8.09;69.36
45327;BME280;31062;49.678;24.560;2023-03-26T03:25:43;97090.44;;;8.77;68.99
45327;BME280;31062;49.678;24.560;2023-03-26T03:28:29;97143.38;;;9.04;69.42
45327;BME280;31062;49.678;24.560;2023-03-26T03:31:16;96958.25;;;7.78;68.92
45327;BME280;31062;49.678;24.560;2023-03-26T03:34:02;97142.06;;;9.05;69.30
45327;BME280;31062;49.678;24.560;2023-03-26T03:36:51;97003.00;;;8.08;68.98
45327;BME280;31062;49.678;24.560;2023-03-26T03:39:49;97170.16;;;9.01;69.27
45327;BME280;31062;49.678;24.560;2023-03-26T03:42:38;96825.88;;;6.76;69.14
45327;BME280;31062;49.678;24.560;2023-03-26T03:45:25;97150.47;;;9.07;69.12
45327;BME280;31062;49.678;24.560;2023-03-26T03:48:24;97131.03;;;8.95;68.51
45327;BME280;31062;49.678;24.560;2023-03-26T03:51:11;97116.63;;;8.76;67.91
45327;BME280;31062;49.678;24.560;2023-03-26T03:54:04;97144.13;;;8.95;68.70
45327;BME280;31062;49.678;24.560;2023-03-26T03:57:16;97157.56;;;8.89;68.33
45327;BME280;31062;49.678;24.560;2023-03-26T04:00:14;97010.50;;;7.86;68.32
45327;BME280;31062;49.678;24.560;2023-03-26T04:03:00;97068.59;;;8.19;68.33
45327;BME280;31062;49.678;24.560;2023-03-26T04:05:51;97007.22;;;7.68;68.50
45327;BME280;31062;49.678;24.560;2023-03-26T04:08:43;96998.69;;;7.55;68.77
45327;BME280;31062;49.678;24.560;2023-03-26T04:11:30;97170.25;;;8.51;69.98
45327;BME280;31062;49.678;24.560;2023-03-26T04:14:38;97185.31;;;8.70;70.09
45327;BME280;31062;49.678;24.560;2023-03-26T04:17:32;97161.88;;;8.71;70.72
45327;BME280;31062;49.678;24.560;2023-03-26T04:20:18;97150.56;;;8.67;71.21
45327;BME280;31062;49.678;24.560;2023-03-26T04:23:06;96975.53;;;7.38;70.73
45327;BME280;31062;49.678;24.560;2023-03-26T04:25:53;97173.44;;;8.57;71.32
45327;BME280;31062;49.678;24.560;2023-03-26T04:28:56;96987.25;;;7.39;70.90
45327;BME280;31062;49.678;24.560;2023-03-26T04:31:53;97152.66;;;8.56;71.46
45327;BME280;31062;49.678;24.560;2023-03-26T04:34:44;97122.69;;;8.12;71.20
45327;BME280;31062;49.678;24.560;2023-03-26T04:37:36;97169.06;;;8.54;71.85
45327;BME280;31062;49.678;24.560;2023-03-26T04:40:31;97149.59;;;8.52;71.43
45327;BME280;31062;49.678;24.560;2023-03-26T04:43:26;97162.44;;;8.38;71.70
45327;BME280;31062;49.678;24.560;2023-03-26T04:46:13;97153.94;;;8.55;71.75
45327;BME280;31062;49.678;24.560;2023-03-26T04:49:06;97114.50;;;8.24;72.10
45327;BME280;31062;49.678;24.560;2023-03-26T04:51:52;97155.44;;;8.47;72.16
45327;BME280;31062;49.678;24.560;2023-03-26T04:54:58;97010.50;;;7.36;72.70
45327;BME280;31062;49.678;24.560;2023-03-26T04:57:50;97007.31;;;7.30;73.30
45327;BME280;31062;49.678;24.560;2023-03-26T05:01:01;97173.19;;;8.44;73.46
45327;BME280;31062;49.678;24.560;2023-03-26T05:03:56;97132.53;;;8.25;73.22
45327;BME280;31062;49.678;24.560;2023-03-26T05:06:46;97117.50;;;7.88;73.74
45327;BME280;31062;49.678;24.560;2023-03-26T05:09:50;97172.72;;;8.47;74.37
45327;BME280;31062;49.678;24.560;2023-03-26T05:12:54;97149.34;;;8.29;74.25
45327;BME280;31062;49.678;24.560;2023-03-26T05:15:44;97145.75;;;8.17;73.87
45327;BME280;31062;49.678;24.560;2023-03-26T05:18:47;97180.22;;;8.66;73.65
45327;BME280;31062;49.678;24.560;2023-03-26T05:21:37;97142.06;;;8.43;73.75
45327;BME280;31062;49.678;24.560;2023-03-26T05:24:24;97179.72;;;8.79;73.40
45327;BME280;31062;49.678;24.560;2023-03-26T05:27:14;97182.56;;;8.91;73.54
45327;BME280;31062;49.678;24.560;2023-03-26T05:30:08;97191.53;;;9.01;73.26
45327;BME280;31062;49.678;24.560;2023-03-26T05:33:01;97186.28;;;9.05;73.45
45327;BME280;31062;49.678;24.560;2023-03-26T05:36:11;97194.91;;;8.99;71.53
45327;BME280;31062;49.678;24.560;2023-03-26T05:39:00;97195.34;;;8.96;71.45
45327;BME280;31062;49.678;24.560;2023-03-26T05:42:15;97015.50;;;7.68;71.53
45327;BME280;31062;49.678;24.560;2023-03-26T05:45:23;97129.56;;;8.42;70.75
45327;BME280;31062;49.678;24.560;2023-03-26T05:48:09;97149.19;;;8.46;69.91
45327;BME280;31062;49.678;24.560;2023-03-26T05:50:56;97110.28;;;8.23;70.06
45327;BME280;31062;49.678;24.560;2023-03-26T05:53:44;97037.69;;;7.70;69.76
45327;BME280;31062;49.678;24.560;2023-03-26T05:56:48;97020.59;;;7.62;69.14
45327;BME280;31062;49.678;24.560;2023-03-26T05:59:54;97212.84;;;8.89;69.20
45327;BME280;31062;49.678;24.560;2023-03-26T06:02:59;97206.78;;;8.81;69.40
45327;BME280;31062;49.678;24.560;2023-03-26T06:06:21;97193.19;;;8.64;69.55
45327;BME280;31062;49.678;24.560;2023-03-26T06:09:12;97049.56;;;7.83;69.11
45327;BME280;31062;49.678;24.560;2023-03-26T06:12:00;97206.97;;;8.94;68.50
45327;BME280;31062;49.678;24.560;2023-03-26T06:14:48;97076.53;;;8.03;68.26
45327;BME280;31062;49.678;24.560;2023-03-26T06:17:39;97181.75;;;8.79;68.40
45327;BME280;31062;49.678;24.560;2023-03-26T06:20:31;97257.22;;;9.22;68.06
45327;BME280;31062;49.678;24.560;2023-03-26T06:23:21;97228.50;;;9.27;67.69
45327;BME280;31062;49.678;24.560;2023-03-26T06:26:25;97232.91;;;9.41;66.73
45327;BME280;31062;49.678;24.560;2023-03-26T06:29:19;97228.97;;;9.66;66.79
45327;BME280;31062;49.678;24.560;2023-03-26T06:32:31;97234.16;;;9.93;66.45
45327;BME280;31062;49.678;24.560;2023-03-26T06:35:25;97106.09;;;9.26;65.76
45327;BME280;31062;49.678;24.560;2023-03-26T06:38:12;97182.13;;;9.91;64.38
45327;BME280;31062;49.678;24.560;2023-03-26T06:41:03;97197.09;;;9.98;64.51
45327;BME280;31062;49.678;24.560;2023-03-26T06:44:18;97160.94;;;9.84;64.00
45327;BME280;31062;49.678;24.560;2023-03-26T06:47:33;97186.19;;;10.11;64.15
45327;BME280;31062;49.678;24.560;2023-03-26T06:50:37;97094.34;;;9.59;63.14
45327;BME280;31062;49.678;24.560;2023-03-26T06:53:49;97124.56;;;9.78;62.17
45327;BME280;31062;49.678;24.560;2023-03-26T06:56:55;97067.66;;;9.42;62.23
45327;BME280;31062;49.678;24.560;2023-03-26T07:00:00;97058.66;;;9.41;63.20
45327;BME280;31062;49.678;24.560;2023-03-26T07:03:04;97054.00;;;9.56;63.10
45327;BME280;31062;49.678;24.560;2023-03-26T07:06:09;97224.03;;;10.86;63.33
45327;BME280;31062;49.678;24.560;2023-03-26T07:09:32;97138.69;;;10.38;63.04
45327;BME280;31062;49.678;24.560;2023-03-26T07:12:37;97191.97;;;11.07;61.50
45327;BME280;31062;49.678;24.560;2023-03-26T07:15:42;97036.09;;;10.25;61.47
45327;BME280;31062;49.678;24.560;2023-03-26T07:18:54;97131.56;;;10.93;60.84
45327;BME280;31062;49.678;24.560;2023-03-26T07:21:44;97155.25;;;11.31;61.64
45327;BME280;31062;49.678;24.560;2023-03-26T07:24:52;97042.03;;;10.68;60.72
45327;BME280;31062;49.678;24.560;2023-03-26T07:28:04;97209.63;;;11.97;60.63
45327;BME280;31062;49.678;24.560;2023-03-26T07:31:31;97211.44;;;11.92;59.39
45327;BME280;31062;49.678;24.560;2023-03-26T07:42:13;97176.13;;;11.21;59.67
45327;BME280;31062;49.678;24.560;2023-03-26T07:48:42;97055.31;;;10.11;60.98
45327;BME280;31062;49.678;24.560;2023-03-26T07:51:35;97196.25;;;11.33;62.46
45327;BME280;31062;49.678;24.560;2023-03-26T07:54:54;97190.28;;;11.50;61.58
45327;BME280;31062;49.678;24.560;2023-03-26T08:08:24;97161.94;;;12.14;61.46
45327;BME280;31062;49.678;24.560;2023-03-26T08:18:03;97137.03;;;11.65;57.50
45327;BME280;31062;49.678;24.560;2023-03-26T08:21:10;97103.78;;;11.17;57.67
45327;BME280;31062;49.678;24.560;2023-03-26T08:27:22;97025.69;;;10.02;58.84
45327;BME280;31062;49.678;24.560;2023-03-26T08:30:20;97177.13;;;10.90;60.48
45327;BME280;31062;49.678;24.560;2023-03-26T08:33:15;97206.06;;;10.99;60.86
45327;BME280;31062;49.678;24.560;2023-03-26T08:36:02;97211.84;;;10.91;61.62
45327;BME280;31062;49.678;24.560;2023-03-26T08:38:47;97215.84;;;10.88;62.12
45327;BME280;31062;49.678;24.560;2023-03-26T08:57:39;97183.75;;;10.62;63.82
45327;BME280;31062;49.678;24.560;2023-03-26T09:13:32;97184.47;;;10.62;66.39
45327;BME280;31062;49.678;24.560;2023-03-26T09:34:29;97168.75;;;11.37;61.37
45327;BME280;31062;49.678;24.560;2023-03-26T09:37:27;97194.59;;;11.65;62.40
45327;BME280;31062;49.678;24.560;2023-03-26T09:40:20;97160.50;;;11.51;61.21
45327;BME280;31062;49.678;24.560;2023-03-26T09:46:12;97167.22;;;11.59;60.08
45327;BME280;31062;49.678;24.560;2023-03-26T09:49:20;97194.94;;;11.82;60.02
45327;BME280;31062;49.678;24.560;2023-03-26T09:52:25;97188.16;;;11.85;59.77
45327;BME280;31062;49.678;24.560;2023-03-26T10:07:23;97033.97;;;11.09;60.90
45327;BME280;31062;49.678;24.560;2023-03-26T10:10:37;97156.47;;;12.16;60.72
45327;BME280;31062;49.678;24.560;2023-03-26T10:17:04;97117.31;;;11.84;59.41
45327;BME280;31062;49.678;24.560;2023-03-26T10:23:46;97143.69;;;12.36;57.81
45327;BME280;31062;49.678;24.560;2023-03-26T10:33:22;97124.56;;;12.69;55.28
45327;BME280;31062;49.678;24.560;2023-03-26T10:36:16;97127.16;;;12.79;54.93
45327;BME280;31062;49.678;24.560;2023-03-26T10:51:32;97122.81;;;12.62;55.68
45327;BME280;31062;49.678;24.560;2023-03-26T10:54:33;96958.28;;;11.45;57.11
45327;BME280;31062;49.678;24.560;2023-03-26T11:00:17;96941.06;;;11.60;56.50
45327;BME280;31062;49.678;24.560;2023-03-26T11:03:25;96942.44;;;11.86;54.63
45327;BME280;31062;49.678;24.560;2023-03-26T11:12:21;97104.00;;;13.45;52.52
45327;BME280;31062;49.678;24.560;2023-03-26T11:18:28;97085.13;;;13.43;52.41
45327;BME280;31062;49.678;24.560;2023-03-26T11:21:26;97057.06;;;13.10;51.40
45327;BME280;31062;49.678;24.560;2023-03-26T11:24:41;97086.72;;;13.33;52.50
45327;BME280;31062;49.678;24.560;2023-03-26T11:30:49;97084.38;;;13.00;53.38
45327;BME280;31062;49.678;24.560;2023-03-26T11:33:49;97114.28;;;12.86;56.62
45327;BME280;31062;49.678;24.560;2023-03-26T11:36:41;97100.25;;;12.70;58.33
45327;BME280;31062;49.678;24.560;2023-03-26T11:39:39;97033.41;;;12.00;60.42
45327;BME280;31062;49.678;24.560;2023-03-26T11:42:26;97098.41;;;12.47;64.71
45327;BME280;31062;49.678;24.560;2023-03-26T11:45:18;97098.28;;;12.59;65.23
45327;BME280;31062;49.678;24.560;2023-03-26T11:48:16;97007.81;;;12.15;63.95
45327;BME280;31062;49.678;24.560;2023-03-26T11:51:10;97044.44;;;12.52;62.26
45327;BME280;31062;49.678;24.560;2023-03-26T11:53:59;97058.13;;;12.76;61.25
45327;BME280;31062;49.678;24.560;2023-03-26T11:56:55;96922.88;;;11.71;61.79
45327;BME280;31062;49.678;24.560;2023-03-26T12:02:45;97069.66;;;12.84;60.48
45327;BME280;31062;49.678;24.560;2023-03-26T12:05:47;97058.66;;;12.86;59.83
45327;BME280;31062;49.678;24.560;2023-03-26T12:08:38;96901.41;;;11.71;60.11
45327;BME280;31062;49.678;24.560;2023-03-26T12:11:29;96940.72;;;12.07;60.84
45327;BME280;31062;49.678;24.560;2023-03-26T12:14:23;97063.66;;;13.03;62.19
45327;BME280;31062;49.678;24.560;2023-03-26T12:17:24;97035.16;;;12.89;60.84
45327;BME280;31062;49.678;24.560;2023-03-26T12:23:41;97063.97;;;13.09;57.26
45327;BME280;31062;49.678;24.560;2023-03-26T12:26:39;97048.31;;;13.02;55.31
45327;BME280;31062;49.678;24.560;2023-03-26T12:29:34;96956.56;;;12.18;52.38
45327;BME280;31062;49.678;24.560;2023-03-26T12:32:19;97034.66;;;12.79;54.65
45327;BME280;31062;49.678;24.560;2023-03-26T12:35:15;97051.53;;;12.83;55.23
45327;BME280;31062;49.678;24.560;2023-03-26T12:38:15;96983.22;;;12.50;55.53
45327;BME280;31062;49.678;24.560;2023-03-26T12:41:12;97034.00;;;12.94;54.71
45327;BME280;31062;49.678;24.560;2023-03-26T12:44:25;96873.25;;;11.91;55.49
45327;BME280;31062;49.678;24.560;2023-03-26T12:47:32;97029.78;;;12.93;54.80
45327;BME280;31062;49.678;24.560;2023-03-26T12:53:47;97008.31;;;12.52;54.92
45327;BME280;31062;49.678;24.560;2023-03-26T12:56:37;97033.97;;;12.51;55.21
45327;BME280;31062;49.678;24.560;2023-03-26T13:06:20;97025.81;;;12.41;56.70
45327;BME280;31062;49.678;24.560;2023-03-26T13:22:15;97053.19;;;11.80;62.87
45327;BME280;31062;49.678;24.560;2023-03-26T13:25:42;97052.03;;;11.72;63.28
45327;BME280;31062;49.678;24.560;2023-03-26T13:31:53;97038.72;;;11.82;64.05
45327;BME280;31062;49.678;24.560;2023-03-26T13:35:04;97030.50;;;11.98;59.88
45327;BME280;31062;49.678;24.560;2023-03-26T13:41:05;97014.59;;;12.12;61.54
45327;BME280;31062;49.678;24.560;2023-03-26T13:47:09;97032.81;;;12.42;58.29
45327;BME280;31062;49.678;24.560;2023-03-26T13:50:02;96961.31;;;12.02;56.88
45327;BME280;31062;49.678;24.560;2023-03-26T13:53:06;97020.56;;;12.61;56.29
45327;BME280;31062;49.678;24.560;2023-03-26T13:55:58;97004.69;;;12.63;55.57
45327;BME280;31062;49.678;24.560;2023-03-26T14:02:33;97018.91;;;12.69;55.08
45327;BME280;31062;49.678;24.560;2023-03-26T14:05:38;97009.94;;;12.71;52.61
45327;BME280;31062;49.678;24.560;2023-03-26T14:08:36;96825.72;;;11.57;51.28
45327;BME280;31062;49.678;24.560;2023-03-26T14:11:52;96984.59;;;12.79;49.55
45327;BME280;31062;49.678;24.560;2023-03-26T14:15:04;97000.66;;;12.80;49.26
45327;BME280;31062;49.678;24.560;2023-03-26T14:18:00;96984.91;;;12.85;48.79
45327;BME280;31062;49.678;24.560;2023-03-26T14:21:08;96946.00;;;12.57;48.96
45327;BME280;31062;49.678;24.560;2023-03-26T14:33:32;96980.28;;;13.05;47.46
45327;BME280;31062;49.678;24.560;2023-03-26T14:36:31;96990.00;;;13.04;47.30
45327;BME280;31062;49.678;24.560;2023-03-26T14:42:37;96840.84;;;12.09;48.05
45327;BME280;31062;49.678;24.560;2023-03-26T14:54:41;96977.94;;;12.99;48.13
45327;BME280;31062;49.678;24.560;2023-03-26T15:04:35;96998.06;;;12.98;48.45
45327;BME280;31062;49.678;24.560;2023-03-26T15:10:57;96980.84;;;12.88;49.19
45327;BME280;31062;49.678;24.560;2023-03-26T15:14:09;96979.53;;;12.89;49.94
45327;BME280;31062;49.678;24.560;2023-03-26T15:33:57;96975.78;;;12.98;50.71
45327;BME280;31062;49.678;24.560;2023-03-26T15:40:15;96986.41;;;12.88;50.32
45327;BME280;31062;49.678;24.560;2023-03-26T15:43:11;96928.84;;;12.47;51.02
45327;BME280;31062;49.678;24.560;2023-03-26T15:52:35;96983.56;;;12.86;52.63
45327;BME280;31062;49.678;24.560;2023-03-26T15:55:30;96975.22;;;12.86;52.90
45327;BME280;31062;49.678;24.560;2023-03-26T15:58:25;97006.00;;;12.90;53.08
45327;BME280;31062;49.678;24.560;2023-03-26T16:04:20;96947.25;;;12.54;52.35
45327;BME280;31062;49.678;24.560;2023-03-26T16:10:27;96981.63;;;12.75;51.21
45327;BME280;31062;49.678;24.560;2023-03-26T16:13:32;96986.38;;;12.58;51.09
45327;BME280;31062;49.678;24.560;2023-03-26T16:16:21;96856.34;;;11.59;52.61
45327;BME280;31062;49.678;24.560;2023-03-26T16:22:10;97016.25;;;12.44;52.97
45327;BME280;31062;49.678;24.560;2023-03-26T16:28:35;96857.06;;;10.93;54.96
45327;BME280;31062;49.678;24.560;2023-03-26T16:37:46;96867.03;;;10.73;55.76
45327;BME280;31062;49.678;24.560;2023-03-26T16:40:35;96967.53;;;11.36;55.90
45327;BME280;31062;49.678;24.560;2023-03-26T16:47:21;96983.34;;;11.33;56.26
45327;BME280;31062;49.678;24.560;2023-03-26T16:56:45;97030.00;;;11.37;57.56
45327;BME280;31062;49.678;24.560;2023-03-26T16:59:47;97039.88;;;11.40;57.61
45327;BME280;31062;49.678;24.560;2023-03-26T17:09:06;96995.59;;;11.17;57.76
45327;BME280;31062;49.678;24.560;2023-03-26T17:15:05;96916.41;;;10.51;57.66
45327;BME280;31062;49.678;24.560;2023-03-26T17:24:04;97064.75;;;11.38;58.52
45327;BME280;31062;49.678;24.560;2023-03-26T17:33:34;97043.56;;;11.31;59.29
45327;BME280;31062;49.678;24.560;2023-03-26T17:36:29;97013.53;;;11.02;59.52
45327;BME280;31062;49.678;24.560;2023-03-26T17:42:32;97077.94;;;11.51;60.56
45327;BME280;31062;49.678;24.560;2023-03-26T17:45:21;97069.53;;;11.49;59.46
45327;BME280;31062;49.678;24.560;2023-03-26T17:48:17;97098.00;;;11.50;58.97
45327;BME280;31062;49.678;24.560;2023-03-26T17:51:28;97076.16;;;11.44;58.19
45327;BME280;31062;49.678;24.560;2023-03-26T17:57:19;97074.16;;;11.33;58.04
45327;BME280;31062;49.678;24.560;2023-03-26T18:00:06;97076.28;;;11.46;57.40
45327;BME280;31062;49.678;24.560;2023-03-26T18:03:05;96932.19;;;10.49;56.61
45327;BME280;31062;49.678;24.560;2023-03-26T18:06:08;97068.81;;;11.49;55.91
45327;BME280;31062;49.678;24.560;2023-03-26T18:18:44;97031.19;;;11.09;56.05
45327;BME280;31062;49.678;24.560;2023-03-26T18:21:36;97011.88;;;10.85;55.29
45327;BME280;31062;49.678;24.560;2023-03-26T18:24:36;97049.88;;;11.20;55.17
45327;BME280;31062;49.678;24.560;2023-03-26T18:27:22;97073.31;;;11.42;55.31
45327;BME280;31062;49.678;24.560;2023-03-26T18:30:20;97049.09;;;11.31;55.37
45327;BME280;31062;49.678;24.560;2023-03-26T18:33:14;96998.59;;;10.95;55.17
45327;BME280;31062;49.678;24.560;2023-03-26T18:35:59;97071.34;;;11.44;55.88
45327;BME280;31062;49.678;24.560;2023-03-26T18:38:48;97088.63;;;11.43;55.69
45327;BME280;31062;49.678;24.560;2023-03-26T18:41:35;97084.28;;;11.40;56.00
45327;BME280;31062;49.678;24.560;2023-03-26T18:44:24;97068.34;;;11.40;55.89
45327;BME280;31062;49.678;24.560;2023-03-26T18:47:10;96947.63;;;10.52;56.01
45327;BME280;31062;49.678;24.560;2023-03-26T18:49:57;97059.75;;;11.23;56.60
45327;BME280;31062;49.678;24.560;2023-03-26T18:52:44;97074.94;;;11.22;56.78
45327;BME280;31062;49.678;24.560;2023-03-26T18:55:31;96909.16;;;10.09;56.15
45327;BME280;31062;49.678;24.560;2023-03-26T19:01:08;97040.53;;;11.01;56.41
45327;BME280;31062;49.678;24.560;2023-03-26T19:04:11;96902.06;;;10.06;56.45
45327;BME280;31062;49.678;24.560;2023-03-26T19:06:58;97059.88;;;11.25;56.06
45327;BME280;31062;49.678;24.560;2023-03-26T19:09:44;96901.69;;;10.12;55.85
45327;BME280;31062;49.678;24.560;2023-03-26T19:12:31;97038.84;;;10.96;56.04
45327;BME280;31062;49.678;24.560;2023-03-26T19:15:19;97082.66;;;11.23;56.80
45327;BME280;31062;49.678;24.560;2023-03-26T19:18:07;96927.44;;;10.14;57.36
45327;BME280;31062;49.678;24.560;2023-03-26T19:20:59;97027.84;;;10.50;56.73
45327;BME280;31062;49.678;24.560;2023-03-26T19:23:46;96985.00;;;10.04;56.67
45327;BME280;31062;49.678;24.560;2023-03-26T19:26:32;97071.56;;;10.63;56.47
45327;BME280;31062;49.678;24.560;2023-03-26T19:29:23;96916.63;;;9.49;57.30
45327;BME280;31062;49.678;24.560;2023-03-26T19:32:30;96928.69;;;9.53;57.57
45327;BME280;31062;49.678;24.560;2023-03-26T19:35:19;97093.88;;;10.42;57.38
45327;BME280;31062;49.678;24.560;2023-03-26T19:38:26;97082.53;;;10.38;57.35
45327;BME280;31062;49.678;24.560;2023-03-26T19:41:37;97060.38;;;10.49;57.23
45327;BME280;31062;49.678;24.560;2023-03-26T19:44:25;97060.63;;;10.53;58.00
45327;BME280;31062;49.678;24.560;2023-03-26T19:47:17;96903.16;;;9.55;57.56
45327;BME280;31062;49.678;24.560;2023-03-26T19:56:12;97009.31;;;10.52;58.19
45327;BME280;31062;49.678;24.560;2023-03-26T19:58:59;97024.69;;;10.67;57.73
45327;BME280;31062;49.678;24.560;2023-03-26T20:01:46;96888.00;;;9.79;57.42
45327;BME280;31062;49.678;24.560;2023-03-26T20:04:32;97000.41;;;10.54;57.32
45327;BME280;31062;49.678;24.560;2023-03-26T20:07:20;96863.97;;;9.58;56.75
45327;BME280;31062;49.678;24.560;2023-03-26T20:10:20;96935.88;;;10.05;56.64
45327;BME280;31062;49.678;24.560;2023-03-26T20:13:16;97006.75;;;10.56;56.72
45327;BME280;31062;49.678;24.560;2023-03-26T20:16:18;96994.59;;;10.50;56.81
45327;BME280;31062;49.678;24.560;2023-03-26T20:19:05;96854.31;;;9.48;57.25
45327;BME280;31062;49.678;24.560;2023-03-26T20:21:51;96991.38;;;10.42;57.02
45327;BME280;31062;49.678;24.560;2023-03-26T20:24:37;96955.41;;;10.18;56.77
45327;BME280;31062;49.678;24.560;2023-03-26T20:27:23;97009.09;;;10.48;57.49
45327;BME280;31062;49.678;24.560;2023-03-26T20:30:09;97004.50;;;10.41;57.25
45327;BME280;31062;49.678;24.560;2023-03-26T20:32:58;97002.09;;;10.36;58.19
45327;BME280;31062;49.678;24.560;2023-03-26T20:35:57;96999.09;;;10.32;57.53
45327;BME280;31062;49.678;24.560;2023-03-26T20:38:44;96962.25;;;10.06;57.94
45327;BME280;31062;49.678;24.560;2023-03-26T20:41:30;96952.50;;;9.70;57.75
45327;BME280;31062;49.678;24.560;2023-03-26T20:44:18;96828.94;;;8.93;58.29
45327;BME280;31062;49.678;24.560;2023-03-26T20:47:04;96956.47;;;9.78;59.06
45327;BME280;31062;49.678;24.560;2023-03-26T20:49:50;96968.16;;;9.77;60.06
45327;BME280;31062;49.678;24.560;2023-03-26T20:52:37;96971.53;;;9.87;59.82